createdAt,value
2023-03-16T00:02:13.651Z,8.17
2023-03-16T00:05:15.991Z,10.15
2023-03-16T00:08:19.357Z,8.88
2023-03-16T00:11:21.757Z,8.57
2023-03-16T00:14:24.090Z,7.95
2023-03-16T00:17:26.887Z,8.95
2023-03-16T00:20:29.446Z,6.85
2023-03-16T00:23:35.863Z,10.48
2023-03-16T00:26:38.285Z,9.35
2023-03-16T00:29:48.414Z,10.55
2023-03-16T00:32:54.224Z,9.35
2023-03-16T00:36:04.107Z,9.02
2023-03-16T00:39:07.076Z,8.75
2023-03-16T00:42:14.498Z,8.63
2023-03-16T00:45:17.323Z,8.70
2023-03-16T00:48:21.630Z,6.88
2023-03-16T00:51:24.402Z,9.77
2023-03-16T00:54:27.177Z,10.00
2023-03-16T00:57:30.464Z,7.17
2023-03-16T01:00:34.107Z,7.47
2023-03-16T01:03:38.586Z,10.88
2023-03-16T01:06:42.984Z,9.57
2023-03-16T01:09:45.722Z,9.10
2023-03-16T01:12:48.259Z,8.83
2023-03-16T01:15:51.808Z,8.60
2023-03-16T01:18:54.396Z,6.85
2023-03-16T01:21:58.446Z,8.13
2023-03-16T01:25:00.758Z,7.80
2023-03-16T01:28:03.764Z,7.75
2023-03-16T01:31:09.501Z,6.32
2023-03-16T01:34:16.789Z,9.10
2023-03-16T01:37:19.624Z,8.60
2023-03-16T01:40:34.635Z,8.73
2023-03-16T01:43:38.982Z,8.55
2023-03-16T01:46:42.933Z,8.85
2023-03-16T01:49:48.344Z,8.40
2023-03-16T01:52:52.300Z,10.05
2023-03-16T01:55:55.519Z,8.93
2023-03-16T01:59:00.107Z,6.97
2023-03-16T02:02:03.842Z,8.80
2023-03-16T02:05:17.757Z,8.48
2023-03-16T02:08:23.018Z,8.93
2023-03-16T02:11:26.132Z,9.07
2023-03-16T02:14:35.762Z,9.23
2023-03-16T02:17:38.801Z,9.80
2023-03-16T02:21:18.118Z,9.02
2023-03-16T02:24:20.659Z,8.07
2023-03-16T02:28:02.446Z,8.55
2023-03-16T02:31:07.849Z,11.82
2023-03-16T02:34:10.406Z,11.55
2023-03-16T02:37:13.125Z,9.98
2023-03-16T02:40:27.981Z,8.95
2023-03-16T02:43:34.015Z,10.88
2023-03-16T02:46:47.522Z,10.50
2023-03-16T02:49:50.967Z,10.15
2023-03-16T02:52:53.341Z,10.27
2023-03-16T02:55:56.002Z,10.18
2023-03-16T02:58:58.859Z,8.63
2023-03-16T03:02:01.867Z,10.70
2023-03-16T03:05:04.329Z,9.77
2023-03-16T03:08:07.057Z,9.48
2023-03-16T03:11:09.958Z,12.02
2023-03-16T03:14:17.480Z,8.70
2023-03-16T03:17:30.145Z,10.82
2023-03-16T03:20:33.586Z,10.50
2023-03-16T03:23:35.944Z,8.10
2023-03-16T03:26:38.323Z,10.63
2023-03-16T03:29:44.740Z,9.13
2023-03-16T03:32:47.201Z,10.80
2023-03-16T03:35:58.317Z,10.73
2023-03-16T03:39:07.511Z,10.23
2023-03-16T03:42:11.806Z,10.32
2023-03-16T03:45:15.623Z,9.52
2023-03-16T03:48:18.282Z,9.77
2023-03-16T03:51:21.866Z,9.73
2023-03-16T03:54:38.338Z,10.98
2023-03-16T03:57:44.803Z,10.23
2023-03-16T04:00:47.866Z,8.27
2023-03-16T04:03:50.803Z,10.10
2023-03-16T04:06:53.922Z,10.38
2023-03-16T04:09:58.052Z,9.82
2023-03-16T04:13:13.716Z,10.82
2023-03-16T04:16:17.312Z,11.77
2023-03-16T04:19:23.993Z,10.77
2023-03-16T04:22:30.454Z,10.68
2023-03-16T04:25:33.241Z,11.77
2023-03-16T04:28:35.728Z,12.05
2023-03-16T04:31:38.080Z,12.40
2023-03-16T04:34:44.392Z,9.70
2023-03-16T04:37:48.944Z,14.80
2023-03-16T04:40:51.983Z,13.43
2023-03-16T04:43:59.362Z,28.35
2023-03-16T04:47:02.057Z,23.97
2023-03-16T04:50:12.733Z,19.20
2023-03-16T04:53:17.523Z,14.85
2023-03-16T04:56:23.971Z,13.80
2023-03-16T04:59:32.035Z,19.48
2023-03-16T05:03:00.579Z,25.27
2023-03-16T05:06:03.481Z,15.63
2023-03-16T05:09:09.051Z,13.88
2023-03-16T05:12:13.786Z,13.98
2023-03-16T05:15:18.484Z,14.23
2023-03-16T05:18:29.640Z,14.40
2023-03-16T05:21:32.286Z,17.35
2023-03-16T05:24:38.895Z,13.55
2023-03-16T05:27:43.646Z,11.70
2023-03-16T05:30:48.897Z,14.02
2023-03-16T05:33:57.638Z,15.65
2023-03-16T05:37:00.395Z,11.35
2023-03-16T05:40:12.100Z,15.83
2023-03-16T05:43:14.447Z,25.77
2023-03-16T05:46:22.351Z,18.50
2023-03-16T05:49:26.825Z,25.75
2023-03-16T05:52:30.099Z,23.60
2023-03-16T05:55:34.471Z,28.65
2023-03-16T05:58:38.273Z,34.75
2023-03-16T06:01:44.417Z,24.70
2023-03-16T06:04:47.316Z,30.50
2023-03-16T06:07:50.426Z,23.05
2023-03-16T06:10:53.623Z,14.15
2023-03-16T06:13:58.067Z,18.25
2023-03-16T06:17:01.291Z,20.15
2023-03-16T06:20:11.550Z,23.13
2023-03-16T06:23:16.224Z,16.02
2023-03-16T06:26:19.389Z,17.17
2023-03-16T06:29:23.647Z,20.25
2023-03-16T06:32:26.466Z,13.27
2023-03-16T06:35:30.317Z,14.82
2023-03-16T06:38:48.012Z,14.45
2023-03-16T06:42:01.066Z,12.95
2023-03-16T06:45:03.987Z,15.80
2023-03-16T06:48:10.944Z,14.25
2023-03-16T06:51:16.679Z,14.50
2023-03-16T06:54:20.954Z,11.70
2023-03-16T06:57:24.499Z,13.35
2023-03-16T07:00:27.500Z,11.55
2023-03-16T07:03:30.484Z,8.02
2023-03-16T07:06:38.353Z,14.32
2023-03-16T07:09:42.205Z,11.90
2023-03-16T07:12:45.523Z,13.07
2023-03-16T07:15:52.388Z,9.83
2023-03-16T07:18:56.429Z,10.55
2023-03-16T07:21:58.793Z,11.15
2023-03-16T07:25:03.446Z,11.63
2023-03-16T07:28:06.393Z,8.85
2023-03-16T07:31:15.021Z,10.35
2023-03-16T07:34:18.496Z,9.82
2023-03-16T07:37:26.348Z,8.85
2023-03-16T07:40:34.620Z,10.70
2023-03-16T07:43:44.589Z,9.52
2023-03-16T07:46:49.835Z,11.38
2023-03-16T07:49:52.824Z,10.07
2023-03-16T07:52:55.433Z,12.13
2023-03-16T07:55:58.408Z,10.47
2023-03-16T07:59:02.270Z,10.75
2023-03-16T08:02:06.310Z,14.68
2023-03-16T08:05:11.099Z,11.25
2023-03-16T08:08:16.316Z,11.00
2023-03-16T08:11:23.928Z,10.37
2023-03-16T08:14:34.688Z,10.63
2023-03-16T08:17:45.876Z,7.38
2023-03-16T08:20:55.002Z,9.52
2023-03-16T08:23:57.521Z,8.77
2023-03-16T08:27:01.153Z,8.85
2023-03-16T08:30:11.785Z,8.52
2023-03-16T08:33:18.414Z,8.20
2023-03-16T08:36:21.246Z,8.88
2023-03-16T08:39:26.261Z,7.88
2023-03-16T08:42:29.170Z,8.05
2023-03-16T08:45:36.066Z,8.27
2023-03-16T08:48:38.430Z,9.23
2023-03-16T08:51:40.802Z,7.93
2023-03-16T08:54:59.736Z,9.48
2023-03-16T08:58:04.776Z,8.05
2023-03-16T09:01:09.205Z,8.23
2023-03-16T09:04:13.285Z,8.88
2023-03-16T09:10:19.176Z,9.77
2023-03-16T09:13:21.552Z,9.32
2023-03-16T09:16:25.820Z,6.97
2023-03-16T09:19:34.810Z,29.23
2023-03-16T09:22:43.778Z,10.27
2023-03-16T09:25:46.672Z,8.93
2023-03-16T09:28:49.441Z,7.88
2023-03-16T09:31:52.276Z,8.27
2023-03-16T09:34:55.475Z,7.15
2023-03-16T09:38:06.573Z,5.80
2023-03-16T09:41:10.812Z,6.97
2023-03-16T09:44:41.302Z,7.88
2023-03-16T09:47:44.608Z,7.47
2023-03-16T09:50:49.718Z,5.80
2023-03-16T09:53:56.797Z,6.95
2023-03-16T09:57:01.594Z,7.60
2023-03-16T10:00:22.455Z,6.47
2023-03-16T10:03:31.840Z,6.90
2023-03-16T10:06:34.488Z,7.18
2023-03-16T10:09:39.106Z,7.38
2023-03-16T10:12:48.567Z,6.78
2023-03-16T10:15:52.681Z,7.28
2023-03-16T10:22:06.750Z,7.78
2023-03-16T10:25:13.174Z,7.25
2023-03-16T10:28:21.649Z,7.05
2023-03-16T10:31:24.830Z,6.80
2023-03-16T10:34:27.498Z,6.38
2023-03-16T10:37:31.476Z,9.40
2023-03-16T10:40:38.829Z,8.98
2023-03-16T10:43:42.199Z,8.00
2023-03-16T10:46:49.563Z,8.98
2023-03-16T10:49:52.068Z,9.10
2023-03-16T10:52:57.112Z,10.07
2023-03-16T10:56:02.843Z,8.25
2023-03-16T10:59:15.466Z,9.80
2023-03-16T11:02:23.936Z,10.95
2023-03-16T11:05:35.565Z,10.63
2023-03-16T11:08:39.998Z,8.95
2023-03-16T11:11:49.613Z,8.70
2023-03-16T11:14:52.230Z,9.07
2023-03-16T11:17:54.818Z,8.43
2023-03-16T11:20:59.076Z,9.38
2023-03-16T11:24:04.409Z,8.00
2023-03-16T11:27:18.218Z,8.25
2023-03-16T11:31:01.741Z,8.30
2023-03-16T11:34:04.256Z,7.55
2023-03-16T11:37:32.706Z,7.03
2023-03-16T11:41:03.995Z,6.50
2023-03-16T11:44:37.118Z,7.25
2023-03-16T11:48:12.363Z,7.43
2023-03-16T11:51:33.632Z,6.28
2023-03-16T11:55:15.417Z,6.20
2023-03-16T11:58:32.650Z,6.57
2023-03-16T12:02:05.323Z,7.25
2023-03-16T12:05:43.868Z,6.78
2023-03-16T12:09:05.477Z,6.80
2023-03-16T12:12:19.614Z,5.85
2023-03-16T12:15:40.302Z,6.65
2023-03-16T12:18:46.907Z,7.72
2023-03-16T12:21:57.454Z,7.38
2023-03-16T12:24:59.954Z,7.43
2023-03-16T12:28:07.713Z,6.82
2023-03-16T12:31:18.029Z,7.18
2023-03-16T12:34:34.673Z,7.90
2023-03-16T12:37:57.503Z,7.28
2023-03-16T12:40:59.929Z,6.85
2023-03-16T12:44:12.925Z,6.13
2023-03-16T12:47:31.447Z,6.50
2023-03-16T12:50:34.456Z,6.82
2023-03-16T12:53:44.910Z,6.13
2023-03-16T12:56:49.239Z,7.25
2023-03-16T12:59:58.896Z,5.07
2023-03-16T13:03:01.671Z,4.47
2023-03-16T13:06:04.508Z,6.28
2023-03-16T13:09:07.536Z,5.10
2023-03-16T13:12:10.604Z,4.05
2023-03-16T13:15:23.521Z,4.18
2023-03-16T13:18:35.410Z,4.43
2023-03-16T13:21:41.137Z,4.18
2023-03-16T13:24:52.896Z,3.80
2023-03-16T13:27:56.609Z,4.25
2023-03-16T13:30:59.413Z,5.18
2023-03-16T13:34:02.926Z,5.50
2023-03-16T13:37:05.438Z,6.05
2023-03-16T13:40:20.974Z,4.70
2023-03-16T13:43:28.900Z,5.25
2023-03-16T13:46:31.355Z,5.35
2023-03-16T13:49:34.308Z,4.55
2023-03-16T13:52:36.743Z,3.80
2023-03-16T13:55:39.529Z,3.53
2023-03-16T13:58:46.230Z,3.40
2023-03-16T14:01:49.306Z,3.40
2023-03-16T14:04:51.701Z,2.88
2023-03-16T14:07:55.289Z,3.13
2023-03-16T14:11:01.082Z,2.33
2023-03-16T14:14:17.690Z,3.20
2023-03-16T14:17:21.951Z,3.47
2023-03-16T14:23:33.691Z,3.42
2023-03-16T14:26:46.477Z,3.85
2023-03-16T14:29:55.312Z,3.00
2023-03-16T14:33:06.931Z,3.00
2023-03-16T14:36:20.221Z,3.20
2023-03-16T14:39:22.603Z,3.78
2023-03-16T14:42:29.063Z,2.33
2023-03-16T14:45:36.075Z,2.47
2023-03-16T14:48:38.836Z,2.20
2023-03-16T14:51:42.056Z,3.15
2023-03-16T14:54:44.485Z,5.50
2023-03-16T14:57:47.332Z,6.60
2023-03-16T15:00:54.522Z,4.40
2023-03-16T15:03:57.320Z,5.13
2023-03-16T15:06:59.676Z,3.95
2023-03-16T15:10:10.015Z,2.70
2023-03-16T15:13:24.484Z,3.33
2023-03-16T15:19:30.739Z,4.03
2023-03-16T15:22:38.533Z,3.80
2023-03-16T15:25:45.930Z,3.30
2023-03-16T15:28:48.349Z,3.83
2023-03-16T15:31:53.395Z,2.70
2023-03-16T15:34:57.916Z,3.13
2023-03-16T15:38:02.289Z,3.60
2023-03-16T15:41:04.730Z,3.63
2023-03-16T15:44:13.387Z,3.53
2023-03-16T15:47:16.543Z,3.22
2023-03-16T15:50:22.018Z,4.30
2023-03-16T15:53:32.641Z,4.35
2023-03-16T15:56:51.253Z,5.18
2023-03-16T15:59:56.818Z,5.38
2023-03-16T16:03:00.195Z,3.85
2023-03-16T16:06:02.888Z,4.30
2023-03-16T16:09:07.997Z,4.28
2023-03-16T16:12:14.573Z,4.38
2023-03-16T16:15:29.827Z,4.72
2023-03-16T16:18:36.660Z,4.20
2023-03-16T16:21:38.992Z,4.57
2023-03-16T16:24:41.329Z,4.68
2023-03-16T16:27:43.701Z,4.40
2023-03-16T16:30:46.469Z,4.95
2023-03-16T16:33:49.139Z,4.65
2023-03-16T16:36:51.986Z,12.95
2023-03-16T16:39:54.336Z,12.45
2023-03-16T16:43:05.430Z,15.10
2023-03-16T16:46:15.679Z,20.75
2023-03-16T16:49:30.703Z,31.50
2023-03-16T16:52:33.396Z,20.63
2023-03-16T16:55:35.843Z,17.92
2023-03-16T16:58:38.725Z,15.43
2023-03-16T17:01:42.035Z,14.48
2023-03-16T17:04:44.400Z,9.63
2023-03-16T17:07:47.155Z,9.05
2023-03-16T17:10:49.874Z,9.02
2023-03-16T17:13:52.819Z,9.32
2023-03-16T17:16:55.342Z,11.32
2023-03-16T17:19:57.856Z,10.30
2023-03-16T17:23:00.449Z,9.43
2023-03-16T17:26:12.208Z,11.10
2023-03-16T17:29:34.705Z,11.90
2023-03-16T17:32:37.121Z,12.57
2023-03-16T17:35:42.246Z,14.43
2023-03-16T17:38:44.648Z,13.07
2023-03-16T17:41:49.820Z,12.48
2023-03-16T17:44:53.708Z,12.25
2023-03-16T17:47:56.489Z,12.40
2023-03-16T17:50:58.966Z,12.93
2023-03-16T17:54:01.577Z,45.40
2023-03-16T17:57:04.473Z,31.27
2023-03-16T18:00:22.981Z,19.60
2023-03-16T18:03:29.990Z,17.83
2023-03-16T18:06:33.009Z,16.45
2023-03-16T18:09:35.664Z,17.30
2023-03-16T18:12:38.179Z,18.08
2023-03-16T18:15:40.676Z,19.60
2023-03-16T18:18:43.454Z,20.90
2023-03-16T18:21:45.925Z,21.75
2023-03-16T18:24:49.321Z,19.52
2023-03-16T18:27:51.634Z,12.88
2023-03-16T18:30:54.339Z,17.50
2023-03-16T18:33:59.706Z,16.55
2023-03-16T18:37:06.307Z,18.25
2023-03-16T18:40:13.570Z,17.92
2023-03-16T18:43:17.260Z,17.15
2023-03-16T18:46:19.775Z,20.55
2023-03-16T18:49:30.950Z,23.58
2023-03-16T18:52:34.741Z,22.63
2023-03-16T18:58:49.176Z,21.20
2023-03-16T19:01:52.552Z,24.48
2023-03-16T19:04:59.276Z,21.52
2023-03-16T19:08:03.622Z,19.95
2023-03-16T19:11:06.113Z,24.88
2023-03-16T19:14:22.465Z,27.10
2023-03-16T19:17:24.881Z,24.27
2023-03-16T19:20:30.478Z,28.10
2023-03-16T19:23:36.098Z,26.02
2023-03-16T19:26:39.142Z,29.65
2023-03-16T19:29:41.521Z,29.07
2023-03-16T19:32:43.923Z,36.28
2023-03-16T19:35:51.907Z,34.15
2023-03-16T19:38:55.060Z,34.50
2023-03-16T19:41:59.158Z,38.13
2023-03-16T19:45:02.175Z,31.55
2023-03-16T19:48:12.780Z,32.70
2023-03-16T19:51:17.560Z,34.70
2023-03-16T19:54:28.531Z,35.63
2023-03-16T19:57:31.937Z,37.90
2023-03-16T20:00:34.873Z,33.75
2023-03-16T20:03:38.718Z,30.70
2023-03-16T20:06:41.066Z,33.42
2023-03-16T20:09:44.166Z,37.88
2023-03-16T20:12:47.597Z,27.40
2023-03-16T20:18:57.866Z,32.33
2023-03-16T20:22:00.791Z,34.97
2023-03-16T20:25:05.401Z,37.65
2023-03-16T20:28:18.067Z,37.67
2023-03-16T20:31:25.192Z,37.85
2023-03-16T20:34:30.885Z,37.83
2023-03-16T20:37:33.939Z,37.00
2023-03-16T20:40:36.750Z,36.67
2023-03-16T20:43:39.371Z,34.53
2023-03-16T20:46:44.721Z,34.17
2023-03-16T20:49:47.786Z,32.22
2023-03-16T20:52:51.017Z,33.03
2023-03-16T20:55:54.717Z,24.50
2023-03-16T20:58:57.151Z,37.30
2023-03-16T21:02:01.865Z,29.55
2023-03-16T21:05:06.290Z,26.40
2023-03-16T21:08:09.041Z,24.05
2023-03-16T21:11:39.435Z,24.90
2023-03-16T21:14:42.072Z,23.63
2023-03-16T21:17:44.475Z,23.83
2023-03-16T21:20:49.284Z,23.50
2023-03-16T21:23:51.897Z,29.58
2023-03-16T21:26:54.203Z,27.48
2023-03-16T21:29:58.954Z,37.47
2023-03-16T21:33:02.143Z,26.38
2023-03-16T21:36:08.229Z,35.63
2023-03-16T21:39:19.826Z,33.20
2023-03-16T21:42:22.258Z,34.38
2023-03-16T21:45:25.603Z,26.60
2023-03-16T21:48:37.447Z,25.60
2023-03-16T21:51:40.265Z,25.88
2023-03-16T21:54:42.938Z,33.03
2023-03-16T21:57:45.686Z,33.80
2023-03-16T22:00:48.695Z,34.20
2023-03-16T22:03:57.697Z,33.88
2023-03-16T22:07:00.014Z,33.75
2023-03-16T22:10:02.391Z,33.05
2023-03-16T22:13:05.263Z,30.48
2023-03-16T22:16:15.069Z,30.20
2023-03-16T22:19:18.216Z,31.98
2023-03-16T22:22:21.386Z,26.92
2023-03-16T22:25:27.073Z,21.55
2023-03-16T22:28:29.728Z,31.73
2023-03-16T22:31:34.806Z,28.60
2023-03-16T22:34:43.954Z,27.73
2023-03-16T22:37:46.400Z,28.17
2023-03-16T22:40:48.957Z,28.02
2023-03-16T22:43:51.448Z,28.20
2023-03-16T22:46:53.863Z,29.35
2023-03-16T22:49:56.244Z,30.55
2023-03-16T22:53:01.003Z,28.88
2023-03-16T22:56:03.950Z,28.17
2023-03-16T22:59:07.768Z,28.63
2023-03-16T23:02:16.675Z,27.98
2023-03-16T23:05:22.551Z,28.95
2023-03-16T23:08:26.782Z,29.95
2023-03-16T23:11:32.697Z,31.08
2023-03-16T23:14:38.245Z,27.85
2023-03-16T23:17:40.798Z,25.67
2023-03-16T23:20:43.398Z,24.15
2023-03-16T23:24:00.686Z,27.35
2023-03-16T23:27:03.525Z,23.30
2023-03-16T23:30:25.859Z,27.95
2023-03-16T23:33:28.305Z,25.27
2023-03-16T23:36:30.731Z,22.95
2023-03-16T23:39:33.149Z,27.60
2023-03-16T23:42:36.297Z,28.13
2023-03-16T23:45:44.672Z,27.48
2023-03-16T23:48:48.877Z,24.80
2023-03-16T23:51:51.700Z,25.10
2023-03-16T23:54:53.987Z,22.37
2023-03-16T23:57:56.524Z,22.90
